Time;durP1;ratioP1;P1;durP2;ratioP2;P2;SDS_P1;SDS_P2;PMS_P1;PMS_P2;Temp;Humidity;BMP_temperature;BMP_pressure;BME280_temperature;BME280_humidity;BME280_pressure;Samples;Min_cycle;Max_cycle;Signal;HPM_P1;HPM_P2
2022/04/15 00:01:22;;;;;;;27.15;20.08;;;13.70;99.90;;;;;;5037667;28;20022;-71
2022/04/15 00:03:48;;;;;;;29.08;21.40;;;13.70;99.90;;;;;;5035506;27;20029;-71
2022/04/15 00:06:13;;;;;;;31.55;23.33;;;13.70;99.90;;;;;;5036879;28;20029;-71
2022/04/15 00:08:40;;;;;;;33.33;24.33;;;13.70;99.90;;;;;;5035668;27;20037;-71
2022/04/15 00:11:06;;;;;;;32.20;23.48;;;13.60;99.90;;;;;;5039573;28;20121;-71
2022/04/15 00:13:33;;;;;;;27.33;20.85;;;13.60;99.90;;;;;;5034221;27;20112;-71
2022/04/15 00:15:59;;;;;;;27.00;21.33;;;13.60;99.90;;;;;;5038731;28;20373;-71
2022/04/15 00:18:26;;;;;;;31.67;21.38;;;13.50;99.90;;;;;;5035070;28;20025;-71
2022/04/15 00:20:52;;;;;;;29.23;21.83;;;13.50;99.90;;;;;;5040064;28;20109;-71
2022/04/15 00:23:22;;;;;;;31.88;22.38;;;13.40;99.90;;;;;;5042907;28;20073;-71
2022/04/15 00:25:48;;;;;;;30.70;22.50;;;13.40;99.90;;;;;;5045474;28;20046;-71
2022/04/15 00:28:14;;;;;;;29.85;22.55;;;13.40;99.90;;;;;;5036406;28;20030;-71
2022/04/15 00:30:40;;;;;;;27.70;21.63;;;13.30;99.90;;;;;;5035628;28;20110;-71
2022/04/15 00:33:06;;;;;;;29.75;21.70;;;13.20;99.90;;;;;;5045477;28;20101;-70
2022/04/15 00:35:31;;;;;;;32.00;22.95;;;13.20;99.90;;;;;;5035276;27;20491;-70
2022/04/15 00:37:57;;;;;;;27.10;20.13;;;13.20;99.90;;;;;;5035865;28;20033;-71
2022/04/15 00:40:23;;;;;;;27.95;20.27;;;13.20;99.90;;;;;;5042359;28;20136;-71
2022/04/15 00:42:48;;;;;;;26.35;20.00;;;13.20;99.90;;;;;;5042998;28;20101;-71
2022/04/15 00:45:14;;;;;;;29.00;20.40;;;13.10;99.90;;;;;;5037227;27;20112;-71
2022/04/15 00:47:47;;;;;;;25.98;18.80;;;13.10;99.90;;;;;;5040965;28;20466;-71
2022/04/15 00:50:13;;;;;;;24.25;17.77;;;13.00;99.90;;;;;;5039537;27;20396;-71
2022/04/15 00:52:43;;;;;;;24.77;18.77;;;13.00;99.90;;;;;;5038629;28;20014;-71
2022/04/15 00:55:10;;;;;;;22.02;18.08;;;13.00;99.90;;;;;;5037420;28;20021;-71
2022/04/15 00:57:39;;;;;;;25.00;19.00;;;12.90;99.90;;;;;;5038195;28;20492;-71
2022/04/15 01:00:06;;;;;;;27.73;20.13;;;12.90;99.90;;;;;;5037611;28;20041;-72
2022/04/15 01:02:33;;;;;;;30.25;22.15;;;12.80;99.90;;;;;;5043465;28;20026;-71
2022/04/15 01:05:01;;;;;;;33.90;25.08;;;12.80;99.90;;;;;;5046008;28;20030;-71
2022/04/15 01:07:39;;;;;;;32.33;21.05;;;12.80;99.90;;;;;;5035730;28;20064;-71
2022/04/15 01:10:07;;;;;;;31.73;21.08;;;12.70;99.90;;;;;;5044990;28;20029;-71
2022/04/15 01:12:37;;;;;;;29.80;20.88;;;12.70;99.90;;;;;;5034457;28;20158;-71
2022/04/15 01:15:08;;;;;;;28.38;20.85;;;12.60;99.90;;;;;;5039215;28;20481;-71
2022/04/15 01:17:33;;;;;;;25.38;19.23;;;12.60;99.90;;;;;;5042104;28;20018;-71
2022/04/15 01:20:00;;;;;;;28.48;20.52;;;12.60;99.90;;;;;;5039511;28;20515;-71
2022/04/15 01:22:32;;;;;;;25.38;19.42;;;12.60;99.90;;;;;;5035373;27;20029;-72
2022/04/15 01:24:58;;;;;;;28.88;21.10;;;12.50;99.90;;;;;;5041161;28;20040;-71
2022/04/15 01:27:28;;;;;;;25.05;19.38;;;12.50;99.90;;;;;;5045094;28;20372;-71
2022/04/15 01:29:54;;;;;;;30.55;19.67;;;12.50;99.90;;;;;;5045284;28;20029;-71
2022/04/15 01:32:19;;;;;;;32.05;20.30;;;12.50;99.90;;;;;;5042484;28;20032;-71
2022/04/15 01:34:45;;;;;;;30.17;19.60;;;12.40;99.90;;;;;;5058420;28;20032;-71
2022/04/15 01:37:15;;;;;;;25.85;18.80;;;12.40;99.90;;;;;;5041465;28;20114;-72
2022/04/15 01:39:41;;;;;;;27.30;19.02;;;12.40;99.90;;;;;;5035443;28;20036;-72
2022/04/15 01:42:11;;;;;;;24.67;17.55;;;12.40;99.90;;;;;;5039571;27;20041;-72
2022/04/15 01:44:38;;;;;;;26.20;19.77;;;12.30;99.90;;;;;;5039389;28;20112;-72
2022/04/15 01:47:04;;;;;;;25.45;18.17;;;12.20;99.90;;;;;;5041289;27;20074;-72
2022/04/15 01:49:30;;;;;;;25.20;18.67;;;12.20;99.90;;;;;;5039857;28;20029;-71
2022/04/15 01:51:56;;;;;;;25.58;18.20;;;12.20;99.90;;;;;;5040736;28;20033;-71
2022/04/15 01:54:21;;;;;;;30.02;20.08;;;12.20;99.90;;;;;;5042291;28;20030;-71
2022/04/15 01:56:47;;;;;;;26.92;18.58;;;12.10;99.90;;;;;;5039657;28;20385;-70
2022/04/15 01:59:12;;;;;;;24.55;17.77;;;12.10;99.90;;;;;;5037181;27;20037;-70
2022/04/15 02:01:38;;;;;;;26.73;19.25;;;12.10;99.90;;;;;;5039976;28;20042;-71
2022/04/15 02:04:04;;;;;;;32.58;21.63;;;12.10;99.90;;;;;;5045264;28;20025;-71
2022/04/15 02:06:30;;;;;;;26.40;18.05;;;12.00;99.90;;;;;;5038446;27;20021;-71
2022/04/15 02:08:56;;;;;;;26.15;16.83;;;12.00;99.90;;;;;;5041395;28;20044;-71
2022/04/15 02:11:21;;;;;;;20.30;14.52;;;12.00;99.90;;;;;;5038180;27;20029;-71
2022/04/15 02:13:47;;;;;;;18.17;13.35;;;12.00;99.90;;;;;;5040490;28;20071;-71
2022/04/15 02:16:13;;;;;;;19.15;13.93;;;12.00;99.90;;;;;;5040390;27;20036;-71
2022/04/15 02:18:38;;;;;;;22.67;16.20;;;11.90;99.90;;;;;;5039694;28;20031;-71
2022/04/15 02:21:04;;;;;;;26.55;16.73;;;11.80;99.90;;;;;;5040291;28;20044;-71
2022/04/15 02:23:29;;;;;;;27.70;19.80;;;11.70;99.90;;;;;;5034991;27;20074;-71
2022/04/15 02:25:55;;;;;;;29.25;20.13;;;11.60;99.90;;;;;;5040772;27;20033;-71
2022/04/15 02:28:21;;;;;;;31.00;21.65;;;11.60;99.90;;;;;;5045572;28;20074;-71
2022/04/15 02:30:47;;;;;;;36.08;22.85;;;11.60;99.90;;;;;;5037693;27;20517;-71
2022/04/15 02:33:14;;;;;;;28.00;21.17;;;11.60;99.90;;;;;;5039221;28;20049;-71
2022/04/15 02:35:40;;;;;;;31.45;20.20;;;11.60;99.90;;;;;;5039709;28;20481;-71
2022/04/15 02:38:06;;;;;;;30.42;22.58;;;11.60;99.90;;;;;;5037639;27;20036;-71
2022/04/15 02:40:31;;;;;;;28.90;18.90;;;11.50;99.90;;;;;;5039198;28;20042;-70
2022/04/15 02:42:57;;;;;;;30.90;20.40;;;11.50;99.90;;;;;;5035363;27;20025;-70
2022/04/15 02:45:23;;;;;;;31.17;20.02;;;11.50;99.90;;;;;;5036807;28;20032;-71
2022/04/15 02:47:49;;;;;;;25.17;17.83;;;11.50;99.90;;;;;;5034321;28;20034;-70
2022/04/15 02:50:14;;;;;;;22.35;14.68;;;11.40;99.90;;;;;;5037357;27;20029;-71
2022/04/15 02:52:41;;;;;;;18.25;13.65;;;11.40;99.90;;;;;;5037202;28;20069;-70
2022/04/15 02:55:07;;;;;;;15.88;12.77;;;11.40;99.90;;;;;;5034803;27;20046;-70
2022/04/15 02:57:33;;;;;;;20.98;13.05;;;11.40;99.90;;;;;;5040008;28;20120;-71
2022/04/15 02:59:58;;;;;;;20.33;14.65;;;11.40;99.90;;;;;;5036950;28;20540;-71
2022/04/15 03:02:25;;;;;;;16.42;13.23;;;11.30;99.90;;;;;;5034683;28;20056;-71
2022/04/15 03:04:51;;;;;;;18.35;14.75;;;11.30;99.90;;;;;;5038653;28;20029;-71
2022/04/15 03:07:17;;;;;;;21.40;14.80;;;11.20;99.90;;;;;;5041937;28;20049;-71
2022/04/15 03:09:43;;;;;;;19.27;15.63;;;11.20;99.90;;;;;;5039800;28;20088;-71
2022/04/15 03:12:10;;;;;;;23.23;18.08;;;11.30;99.90;;;;;;5044139;28;20032;-71
2022/04/15 03:14:36;;;;;;;26.33;19.30;;;11.20;99.90;;;;;;5039123;28;20481;-71
2022/04/15 03:17:02;;;;;;;24.63;17.45;;;11.20;99.90;;;;;;5039177;28;20044;-71
2022/04/15 03:19:27;;;;;;;22.92;17.27;;;11.20;99.90;;;;;;5035903;28;20106;-72
2022/04/15 03:21:53;;;;;;;21.08;15.30;;;11.10;99.90;;;;;;5037408;28;20118;-71
2022/04/15 03:24:18;;;;;;;24.50;17.30;;;11.10;99.90;;;;;;5037152;27;20056;-71
2022/04/15 03:26:44;;;;;;;23.88;17.40;;;11.10;99.90;;;;;;5040356;28;20037;-71
2022/04/15 03:29:09;;;;;;;27.33;18.42;;;11.00;99.90;;;;;;5037070;27;20017;-71
2022/04/15 03:31:35;;;;;;;26.90;19.05;;;11.00;99.90;;;;;;5036992;28;20376;-71
2022/04/15 03:34:00;;;;;;;26.65;18.30;;;11.00;99.90;;;;;;5036959;27;20037;-72
2022/04/15 03:36:26;;;;;;;24.60;18.08;;;11.00;99.90;;;;;;5044150;28;20434;-72
2022/04/15 03:38:52;;;;;;;23.15;14.80;;;10.90;99.90;;;;;;5036001;27;20109;-72
2022/04/15 03:41:18;;;;;;;20.95;15.68;;;10.90;99.90;;;;;;5034121;28;20062;-72
2022/04/15 03:43:43;;;;;;;23.05;15.90;;;10.90;99.90;;;;;;5037130;28;20025;-72
2022/04/15 03:46:09;;;;;;;21.40;15.45;;;10.80;99.90;;;;;;5038872;28;20040;-71
2022/04/15 03:48:35;;;;;;;19.35;14.68;;;10.80;99.90;;;;;;5044343;28;20061;-72
2022/04/15 03:51:00;;;;;;;19.40;13.90;;;10.80;99.90;;;;;;5046054;28;20025;-71
2022/04/15 03:53:26;;;;;;;17.42;13.75;;;10.70;99.90;;;;;;5037461;27;20029;-72
2022/04/15 03:55:52;;;;;;;18.33;13.98;;;10.70;99.90;;;;;;5040613;28;20035;-71
2022/04/15 03:58:18;;;;;;;18.35;14.13;;;10.70;99.90;;;;;;5041021;28;20037;-72
2022/04/15 04:00:44;;;;;;;20.77;15.02;;;10.60;99.90;;;;;;5039091;28;20037;-72
2022/04/15 04:03:10;;;;;;;21.38;15.80;;;10.60;99.90;;;;;;5031730;27;20021;-72
2022/04/15 04:05:36;;;;;;;25.02;16.50;;;10.60;99.90;;;;;;5038815;28;20017;-72
2022/04/15 04:08:01;;;;;;;21.00;15.55;;;10.60;99.90;;;;;;5043700;28;20039;-72
2022/04/15 04:10:27;;;;;;;24.08;17.40;;;10.50;99.90;;;;;;5035796;28;20175;-72
2022/04/15 04:12:53;;;;;;;26.45;18.85;;;10.50;99.90;;;;;;5040015;28;20029;-72
2022/04/15 04:15:18;;;;;;;25.13;18.40;;;10.50;99.90;;;;;;5040285;28;20029;-71
2022/04/15 04:17:46;;;;;;;27.90;18.27;;;10.50;99.90;;;;;;5037365;27;20451;-71
2022/04/15 04:20:12;;;;;;;23.23;17.65;;;10.50;99.90;;;;;;5037208;28;20574;-71
2022/04/15 04:22:39;;;;;;;25.75;17.30;;;10.50;99.90;;;;;;5035769;27;20125;-72
2022/04/15 04:25:09;;;;;;;24.58;17.17;;;10.40;99.90;;;;;;5034204;28;20029;-72
2022/04/15 04:27:39;;;;;;;27.00;18.48;;;10.40;99.90;;;;;;5038317;28;20022;-71
2022/04/15 04:30:06;;;;;;;27.50;19.00;;;10.40;99.90;;;;;;5033495;28;20025;-71
2022/04/15 04:32:32;;;;;;;22.98;16.25;;;10.20;99.90;;;;;;5040048;28;20082;-71
2022/04/15 04:34:57;;;;;;;29.00;18.23;;;10.30;99.90;;;;;;5037553;28;20033;-71
2022/04/15 04:37:23;;;;;;;28.92;18.10;;;10.20;99.90;;;;;;5035343;27;20021;-72
2022/04/15 04:39:49;;;;;;;29.05;18.75;;;10.30;99.90;;;;;;5039475;28;20512;-71
2022/04/15 04:42:15;;;;;;;26.52;18.08;;;10.30;99.90;;;;;;5045814;28;20029;-71
2022/04/15 04:44:41;;;;;;;24.42;16.48;;;10.20;99.90;;;;;;5033061;28;20481;-71
2022/04/15 04:47:09;;;;;;;24.05;16.17;;;10.20;99.90;;;;;;5035258;28;20033;-71
2022/04/15 04:49:36;;;;;;;21.15;14.70;;;10.20;99.90;;;;;;5033026;27;20108;-71
2022/04/15 04:52:02;;;;;;;17.50;12.70;;;10.10;99.90;;;;;;5039414;28;20124;-71
2022/04/15 04:54:29;;;;;;;16.17;11.90;;;10.10;99.90;;;;;;5034637;27;20116;-71
2022/04/15 04:56:55;;;;;;;15.70;11.70;;;10.10;99.90;;;;;;5036035;28;20025;-71
2022/04/15 04:59:22;;;;;;;14.95;10.82;;;10.20;99.90;;;;;;5046400;28;20052;-71
2022/04/15 05:01:48;;;;;;;15.85;11.48;;;10.10;99.90;;;;;;5043620;28;20029;-71
2022/04/15 05:04:13;;;;;;;28.02;14.75;;;10.10;99.90;;;;;;5040371;27;20108;-72
2022/04/15 05:06:39;;;;;;;23.10;13.55;;;10.20;99.90;;;;;;5039864;28;20109;-72
2022/04/15 05:09:05;;;;;;;25.77;14.45;;;10.20;99.90;;;;;;5035776;28;20033;-71
2022/04/15 05:11:30;;;;;;;36.03;17.02;;;10.20;99.90;;;;;;5039382;27;20553;-71
2022/04/15 05:13:56;;;;;;;56.17;21.45;;;10.20;99.90;;;;;;5042941;28;20032;-71
2022/04/15 05:16:21;;;;;;;75.05;24.50;;;10.20;99.90;;;;;;5042397;28;20033;-69
2022/04/15 05:18:47;;;;;;;68.22;25.70;;;10.20;99.90;;;;;;5043677;28;20054;-71
2022/04/15 05:21:13;;;;;;;67.57;27.50;;;10.20;99.90;;;;;;5037434;28;20038;-71
2022/04/15 05:23:39;;;;;;;57.92;26.52;;;10.30;99.90;;;;;;5037341;28;20026;-71
2022/04/15 05:26:04;;;;;;;74.13;30.50;;;10.30;99.90;;;;;;5041430;28;20512;-71
2022/04/15 05:28:35;;;;;;;80.35;32.22;;;10.30;99.90;;;;;;5037401;27;20038;-71
2022/04/15 05:31:04;;;;;;;114.65;32.03;;;10.30;99.90;;;;;;5043418;28;20178;-72
2022/04/15 05:33:30;;;;;;;78.20;31.17;;;10.20;99.90;;;;;;5037566;27;20037;-72
2022/04/15 05:35:56;;;;;;;76.78;32.35;;;10.20;99.90;;;;;;5040809;28;20029;-72
2022/04/15 05:38:22;;;;;;;84.93;33.75;;;10.30;99.90;;;;;;5042444;28;20032;-72
2022/04/15 05:40:48;;;;;;;75.45;29.45;;;10.20;99.90;;;;;;5046749;28;20033;-72
2022/04/15 05:43:13;;;;;;;60.42;29.27;;;10.20;99.90;;;;;;5037498;27;20030;-72
2022/04/15 05:45:39;;;;;;;59.33;28.73;;;10.20;99.90;;;;;;5040338;28;20021;-72
2022/04/15 05:48:05;;;;;;;138.50;34.03;;;10.30;99.90;;;;;;5042143;28;20358;-72
2022/04/15 05:50:30;;;;;;;66.03;29.52;;;10.30;99.90;;;;;;5036664;27;20025;-72
2022/04/15 05:52:56;;;;;;;42.42;27.92;;;10.20;99.90;;;;;;5041974;28;20098;-72
2022/04/15 05:55:21;;;;;;;49.17;30.20;;;10.30;99.90;;;;;;5039835;28;20045;-72
2022/04/15 05:57:47;;;;;;;63.00;29.90;;;10.30;99.90;;;;;;5036740;28;20026;-72
2022/04/15 06:00:13;;;;;;;60.58;30.10;;;10.40;99.90;;;;;;5036863;28;20048;-72
2022/04/15 06:02:39;;;;;;;137.00;37.83;;;10.50;99.90;;;;;;5037013;28;20063;-72
2022/04/15 06:05:06;;;;;;;62.85;30.52;;;10.50;99.90;;;;;;5046521;28;20465;-72
2022/04/15 06:07:31;;;;;;;70.28;31.75;;;10.50;99.90;;;;;;5034231;27;20036;-72
2022/04/15 06:09:58;;;;;;;82.55;32.67;;;10.50;99.90;;;;;;5041718;28;20033;-72
2022/04/15 06:12:54;;;;;;;57.03;33.72;;;10.60;99.90;;;;;;5037027;27;20020;-72
2022/04/15 06:15:24;;;;;;;52.67;32.30;;;10.60;99.90;;;;;;5041311;28;20034;-72
2022/04/15 06:17:50;;;;;;;54.63;32.05;;;10.60;99.90;;;;;;5040168;28;20032;-72
2022/04/15 06:20:17;;;;;;;45.55;29.65;;;10.70;99.90;;;;;;5037983;28;20128;-72
2022/04/15 06:22:44;;;;;;;53.10;32.28;;;10.80;99.90;;;;;;5037551;27;20081;-71
2022/04/15 06:25:10;;;;;;;54.28;32.22;;;10.80;99.90;;;;;;5041663;28;20773;-72
2022/04/15 06:27:36;;;;;;;42.75;26.77;;;10.60;99.90;;;;;;5036739;28;20545;-72
2022/04/15 06:30:03;;;;;;;35.92;24.70;;;10.70;99.90;;;;;;5035010;27;20037;-72
2022/04/15 06:32:28;;;;;;;44.75;25.35;;;10.60;99.90;;;;;;5043688;28;20477;-72
2022/04/15 06:34:54;;;;;;;47.95;25.10;;;10.60;99.90;;;;;;5047479;28;20032;-72
2022/04/15 06:37:20;;;;;;;35.60;24.38;;;10.60;99.90;;;;;;5040268;27;20040;-72
2022/04/15 06:39:50;;;;;;;41.22;27.58;;;10.50;99.90;;;;;;5040003;28;20032;-72
2022/04/15 06:42:21;;;;;;;37.80;24.67;;;10.60;99.90;;;;;;5040900;28;20036;-72
2022/04/15 06:44:47;;;;;;;50.55;24.42;;;10.60;99.90;;;;;;5040209;28;20044;-72
2022/04/15 06:47:13;;;;;;;32.60;22.33;;;10.30;99.90;;;;;;5039278;28;20033;-72
2022/04/15 06:49:38;;;;;;;34.38;24.30;;;10.40;99.90;;;;;;5047293;28;20040;-72
2022/04/15 06:52:04;;;;;;;44.05;25.67;;;10.50;99.90;;;;;;5044961;28;20113;-72
2022/04/15 06:54:30;;;;;;;39.33;25.60;;;10.50;99.90;;;;;;5048943;28;20025;-72
2022/04/15 06:56:56;;;;;;;34.47;24.13;;;10.50;99.90;;;;;;5046399;28;20033;-71
2022/04/15 06:59:22;;;;;;;37.25;24.77;;;10.60;99.90;;;;;;5042782;28;20033;-72
2022/04/15 07:01:48;;;;;;;40.13;23.55;;;10.70;99.90;;;;;;5039265;28;20040;-72
2022/04/15 07:04:14;;;;;;;34.65;24.92;;;10.70;99.90;;;;;;5046045;28;20099;-71
2022/04/15 07:06:39;;;;;;;44.20;26.55;;;10.80;99.90;;;;;;5042296;28;20044;-72
2022/04/15 07:09:05;;;;;;;37.88;25.35;;;10.70;99.90;;;;;;5039396;28;20502;-72
2022/04/15 07:11:30;;;;;;;31.52;22.23;;;10.70;99.90;;;;;;5047069;28;20025;-72
2022/04/15 07:13:56;;;;;;;32.85;20.98;;;10.80;99.90;;;;;;5050070;28;20122;-72
2022/04/15 07:16:21;;;;;;;31.85;20.60;;;10.70;99.90;;;;;;5061689;27;20030;-72
2022/04/15 07:18:47;;;;;;;28.95;20.67;;;10.80;99.90;;;;;;5036099;27;20469;-72
2022/04/15 07:21:13;;;;;;;26.20;18.65;;;10.80;99.90;;;;;;5037367;28;20045;-72
2022/04/15 07:23:38;;;;;;;24.98;18.00;;;10.60;99.90;;;;;;5044886;28;20021;-71
2022/04/15 07:26:04;;;;;;;30.13;16.88;;;10.60;99.90;;;;;;5042863;28;20025;-72
2022/04/15 07:28:30;;;;;;;21.85;15.07;;;10.40;99.90;;;;;;5035259;27;20021;-72
2022/04/15 07:30:55;;;;;;;31.20;18.33;;;10.40;99.90;;;;;;5037833;28;20036;-72
2022/04/15 07:33:21;;;;;;;22.23;16.40;;;10.40;99.90;;;;;;5044437;28;20071;-72
2022/04/15 07:35:46;;;;;;;28.67;18.63;;;10.40;99.90;;;;;;5043290;28;20070;-72
2022/04/15 07:38:12;;;;;;;22.73;17.38;;;10.40;99.90;;;;;;5036329;27;20033;-70
2022/04/15 07:40:38;;;;;;;43.28;19.00;;;10.50;99.90;;;;;;5040244;28;20044;-72
2022/04/15 07:43:04;;;;;;;23.05;16.27;;;10.50;99.90;;;;;;5045760;28;20529;-73
2022/04/15 07:45:29;;;;;;;32.53;17.65;;;10.50;99.90;;;;;;5040352;27;20545;-72
2022/04/15 07:47:55;;;;;;;31.48;20.05;;;10.40;99.90;;;;;;5043721;28;20021;-72
2022/04/15 07:50:25;;;;;;;35.20;21.02;;;10.40;99.90;;;;;;5041321;28;20021;-72
2022/04/15 07:52:56;;;;;;;33.97;23.10;;;10.50;99.90;;;;;;5042553;28;20044;-72
2022/04/15 07:55:22;;;;;;;33.08;22.30;;;10.40;99.90;;;;;;5037275;27;20461;-72
2022/04/15 07:57:48;;;;;;;36.00;22.90;;;10.50;99.90;;;;;;5042023;28;20086;-72
2022/04/15 08:00:14;;;;;;;39.90;24.00;;;10.70;99.90;;;;;;5041787;27;20173;-72
2022/04/15 08:02:40;;;;;;;42.33;25.45;;;10.70;99.90;;;;;;5042828;28;20024;-72
2022/04/15 08:05:07;;;;;;;38.33;23.05;;;10.50;99.90;;;;;;5039469;27;20903;-72
2022/04/15 08:07:32;;;;;;;40.30;26.40;;;10.70;99.90;;;;;;5038580;28;20427;-72
2022/04/15 08:09:58;;;;;;;41.45;23.80;;;10.70;99.90;;;;;;5043794;28;20039;-72
2022/04/15 08:12:24;;;;;;;42.75;25.02;;;10.70;99.90;;;;;;5038817;28;20068;-71
2022/04/15 08:14:49;;;;;;;42.45;25.63;;;10.70;99.90;;;;;;5044573;28;20655;-72
2022/04/15 08:17:15;;;;;;;49.50;25.98;;;10.80;99.90;;;;;;5039640;28;20074;-71
2022/04/15 08:19:41;;;;;;;38.40;25.02;;;10.80;99.90;;;;;;5038409;28;20033;-71
2022/04/15 08:22:09;;;;;;;42.55;25.40;;;10.60;99.90;;;;;;5045040;28;20552;-71
2022/04/15 08:24:42;;;;;;;40.75;24.85;;;10.70;99.90;;;;;;5039859;28;20072;-71
2022/04/15 08:27:09;;;;;;;42.00;24.00;;;10.70;99.90;;;;;;5046685;28;20101;-71
2022/04/15 08:29:38;;;;;;;46.15;27.25;;;10.80;99.90;;;;;;5038675;28;20476;-71
2022/04/15 08:32:08;;;;;;;42.88;24.65;;;10.80;99.90;;;;;;5037814;27;20018;-71
2022/04/15 08:34:37;;;;;;;47.17;27.13;;;10.90;99.90;;;;;;5028468;28;20030;-72
2022/04/15 08:37:04;;;;;;;42.13;25.17;;;10.90;99.90;;;;;;5044166;28;20025;-71
2022/04/15 08:39:30;;;;;;;38.92;24.33;;;10.90;99.90;;;;;;5045211;28;20116;-72
2022/04/15 08:41:58;;;;;;;34.03;22.17;;;11.00;99.90;;;;;;5050991;28;20108;-71
2022/04/15 08:44:25;;;;;;;33.20;21.15;;;11.10;99.90;;;;;;5038471;27;20153;-72
2022/04/15 08:46:51;;;;;;;33.47;19.17;;;10.90;99.90;;;;;;5045730;28;20628;-72
2022/04/15 08:49:19;;;;;;;33.53;20.00;;;10.90;99.90;;;;;;5046812;28;20021;-71
2022/04/15 08:51:51;;;;;;;34.80;21.23;;;11.00;99.90;;;;;;5042207;27;20034;-71
2022/04/15 08:54:20;;;;;;;39.33;22.17;;;11.10;99.90;;;;;;5046575;27;20053;-71
2022/04/15 08:56:46;;;;;;;34.08;21.05;;;11.20;99.90;;;;;;5045597;28;20078;-71
2022/04/15 08:59:13;;;;;;;28.05;17.63;;;11.40;99.90;;;;;;5045305;27;20057;-71
2022/04/15 09:01:38;;;;;;;31.00;19.38;;;11.30;99.90;;;;;;5044566;28;20044;-71
2022/04/15 09:04:04;;;;;;;30.60;20.67;;;11.50;99.90;;;;;;5045462;28;20033;-71
2022/04/15 09:06:31;;;;;;;33.60;20.67;;;11.70;99.90;;;;;;5043092;27;20028;-71
2022/04/15 09:09:06;;;;;;;30.25;19.73;;;11.90;99.90;;;;;;5045590;28;20146;-71
2022/04/15 09:11:35;;;;;;;29.50;18.45;;;11.90;99.90;;;;;;5045272;28;20036;-71
2022/04/15 09:14:08;;;;;;;30.27;19.40;;;12.10;99.90;;;;;;5038712;27;20443;-72
2022/04/15 09:16:38;;;;;;;32.10;19.30;;;12.00;99.90;;;;;;5043316;28;20520;-71
2022/04/15 09:19:06;;;;;;;32.55;18.33;;;12.10;99.90;;;;;;5046071;27;20428;-71
2022/04/15 09:21:32;;;;;;;30.55;20.10;;;12.10;99.90;;;;;;5047287;28;20397;-71
2022/04/15 09:23:58;;;;;;;31.38;19.63;;;12.10;99.90;;;;;;5043783;27;20040;-71
2022/04/15 09:26:25;;;;;;;29.25;19.20;;;12.20;99.90;;;;;;5043948;28;20026;-72
2022/04/15 09:28:53;;;;;;;25.77;18.88;;;12.30;99.90;;;;;;5039608;28;20040;-72
2022/04/15 09:31:20;;;;;;;32.15;20.40;;;12.30;99.90;;;;;;5040897;28;20018;-72
2022/04/15 09:33:51;;;;;;;33.35;21.08;;;12.20;99.90;;;;;;5046046;27;20037;-72
2022/04/15 09:36:31;;;;;;;28.25;19.77;;;12.20;99.90;;;;;;5055109;28;20025;-72
2022/04/15 09:38:59;;;;;;;26.88;17.55;;;12.20;99.90;;;;;;5041618;28;20037;-72
2022/04/15 09:41:27;;;;;;;26.25;18.27;;;12.40;99.90;;;;;;5037564;28;20041;-72
2022/04/15 09:43:54;;;;;;;26.38;15.70;;;12.80;99.90;;;;;;5038442;27;20090;-72
2022/04/15 09:46:20;;;;;;;26.50;18.27;;;13.10;99.90;;;;;;5041907;28;20061;-72
2022/04/15 09:49:09;;;;;;;26.50;17.95;;;13.20;99.90;;;;;;5036620;27;20409;-72
2022/04/15 09:51:37;;;;;;;26.08;18.45;;;13.30;99.90;;;;;;5041028;28;20108;-72
2022/04/15 09:54:04;;;;;;;22.95;14.80;;;13.60;99.90;;;;;;5044270;28;20036;-72
2022/04/15 09:56:35;;;;;;;25.25;17.52;;;13.50;99.90;;;;;;5045583;28;20373;-72
2022/04/15 09:59:12;;;;;;;27.27;17.80;;;13.20;99.90;;;;;;5037768;27;20385;-72
2022/04/15 10:01:45;;;;;;;23.80;17.35;;;13.40;99.90;;;;;;5041368;28;20061;-72
2022/04/15 10:04:12;;;;;;;;;;;13.70;99.90;;;;;;5040499;27;20025;-72
2022/04/15 10:06:39;;;;;;;29.27;17.25;;;13.60;99.90;;;;;;5040339;28;19909;-72
2022/04/15 10:09:06;;;;;;;26.20;16.88;;;13.50;99.90;;;;;;5046796;28;20485;-71
2022/04/15 10:11:35;;;;;;;27.08;17.98;;;13.70;99.90;;;;;;5047843;28;20040;-71
2022/04/15 10:14:03;;;;;;;38.75;17.02;;;13.80;99.90;;;;;;5049819;28;20021;-72
2022/04/15 10:16:30;;;;;;;27.33;16.58;;;14.00;99.90;;;;;;5045960;28;20389;-72
2022/04/15 10:19:04;;;;;;;35.92;18.40;;;14.40;99.90;;;;;;5037117;27;20070;-72
2022/04/15 10:21:51;;;;;;;26.45;16.17;;;14.70;99.90;;;;;;5043161;28;20185;-73
2022/04/15 10:24:17;;;;;;;23.70;17.30;;;14.60;99.90;;;;;;5042327;27;20088;-72
2022/04/15 10:26:44;;;;;;;20.80;15.95;;;14.60;99.90;;;;;;5042089;28;20474;-73
2022/04/15 10:29:10;;;;;;;21.30;15.80;;;14.40;99.90;;;;;;5036426;28;20088;-73
2022/04/15 10:31:39;;;;;;;23.45;15.93;;;14.40;99.90;;;;;;5038488;28;20497;-73
2022/04/15 10:34:09;;;;;;;19.13;13.90;;;14.40;99.90;;;;;;5041403;28;20029;-73
2022/04/15 10:36:36;;;;;;;21.83;15.98;;;14.40;99.90;;;;;;5034803;28;20089;-72
2022/04/15 10:39:08;;;;;;;25.00;17.17;;;14.30;99.90;;;;;;5041894;28;20030;-73
2022/04/15 10:41:44;;;;;;;19.42;13.88;;;14.60;99.90;;;;;;5035032;28;20048;-73
2022/04/15 10:44:23;;;;;;;17.60;13.63;;;14.70;99.90;;;;;;5035382;27;20354;-73
2022/04/15 10:46:49;;;;;;;21.10;14.55;;;14.80;99.90;;;;;;5040874;28;20037;-73
2022/04/15 10:49:30;;;;;;;19.90;15.50;;;14.90;99.90;;;;;;5036606;28;20130;-72
2022/04/15 10:52:01;;;;;;;19.88;13.63;;;14.80;99.90;;;;;;5042958;28;20049;-73
2022/04/15 10:54:36;;;;;;;19.05;13.93;;;14.70;99.90;;;;;;5037812;27;20073;-73
2022/04/15 10:57:23;;;;;;;21.35;15.30;;;14.80;99.90;;;;;;5035119;28;20061;-73
2022/04/15 11:02:44;;;;;;;19.02;14.77;;;15.20;99.90;;;;;;5040156;28;20040;-73
2022/04/15 11:05:12;;;;;;;22.35;15.57;;;15.00;99.90;;;;;;5039780;27;20049;-73
2022/04/15 11:07:57;;;;;;;23.27;14.45;;;15.00;99.90;;;;;;5039448;28;20025;-73
2022/04/15 11:10:41;;;;;;;18.92;13.57;;;15.10;99.90;;;;;;5040720;27;20469;-73
2022/04/15 11:13:09;;;;;;;17.83;12.63;;;15.20;99.90;;;;;;5039662;28;20366;-73
2022/04/15 11:15:57;;;;;;;20.45;14.27;;;15.10;99.90;;;;;;5032351;27;20029;-73
2022/04/15 11:18:23;;;;;;;21.02;14.18;;;15.50;99.90;;;;;;5038418;28;20052;-72
2022/04/15 11:20:50;;;;;;;21.00;14.40;;;15.60;99.90;;;;;;5035159;28;20025;-73
2022/04/15 11:23:16;;;;;;;18.38;14.80;;;15.60;99.90;;;;;;5036960;28;20028;-72
2022/04/15 11:25:42;;;;;;;18.02;13.73;;;15.70;99.90;;;;;;5035768;28;20029;-73
2022/04/15 11:28:09;;;;;;;21.08;15.32;;;15.60;99.90;;;;;;5039410;28;20082;-72
2022/04/15 11:30:35;;;;;;;15.85;13.82;;;15.70;99.90;;;;;;5035271;27;20066;-72
2022/04/15 11:33:04;;;;;;;21.00;14.55;;;15.60;99.90;;;;;;5040573;28;20036;-72
2022/04/15 11:35:33;;;;;;;16.75;13.57;;;15.60;99.90;;;;;;5035570;27;20032;-72
2022/04/15 11:38:17;;;;;;;21.05;14.18;;;15.60;99.90;;;;;;5039001;28;20429;-72
2022/04/15 11:40:43;;;;;;;19.77;13.90;;;15.70;99.90;;;;;;5037705;28;20128;-73
2022/04/15 11:43:11;;;;;;;20.45;14.45;;;15.80;99.90;;;;;;5039486;27;20116;-72
2022/04/15 11:45:40;;;;;;;18.30;14.95;;;15.90;99.90;;;;;;5039401;28;20017;-72
2022/04/15 11:48:22;;;;;;;17.20;14.38;;;15.90;99.90;;;;;;5036603;27;20047;-72
2022/04/15 11:50:50;;;;;;;23.08;14.70;;;16.00;99.90;;;;;;5035872;28;20460;-72
2022/04/15 11:53:16;;;;;;;17.88;13.48;;;16.20;99.90;;;;;;5042607;28;20026;-72
2022/04/15 11:55:58;;;;;;;18.58;13.48;;;16.30;99.90;;;;;;5037903;27;20025;-74
2022/04/15 11:58:30;;;;;;;15.77;13.00;;;16.40;99.90;;;;;;5037869;28;20040;-73
2022/04/15 12:00:57;;;;;;;18.17;14.35;;;16.40;99.90;;;;;;5035818;27;20119;-73
2022/04/15 12:03:25;;;;;;;18.13;13.98;;;16.50;99.90;;;;;;5040025;28;20507;-73
2022/04/15 12:05:52;;;;;;;16.75;14.63;;;16.50;99.90;;;;;;5043820;28;20430;-72
2022/04/15 12:08:19;;;;;;;17.02;13.20;;;16.70;99.90;;;;;;5043755;28;20024;-73
2022/04/15 12:10:47;;;;;;;18.60;13.70;;;17.00;99.90;;;;;;5039437;27;20042;-74
2022/04/15 12:13:13;;;;;;;16.13;12.73;;;17.10;99.90;;;;;;5036983;28;20030;-72
2022/04/15 12:15:39;;;;;;;14.82;12.90;;;17.30;99.90;;;;;;5038141;28;20033;-72
2022/04/15 12:18:06;;;;;;;12.32;10.85;;;17.50;99.90;;;;;;5033619;27;20025;-73
2022/04/15 12:20:33;;;;;;;15.55;11.90;;;17.70;99.90;;;;;;5036923;28;20044;-72
2022/04/15 12:22:59;;;;;;;17.08;13.15;;;17.80;99.90;;;;;;5035087;28;20033;-73
2022/04/15 12:25:26;;;;;;;17.23;13.05;;;17.90;99.90;;;;;;5039891;28;20151;-74
2022/04/15 12:27:55;;;;;;;13.43;11.60;;;18.00;99.90;;;;;;5040741;27;20037;-74
2022/04/15 12:30:38;;;;;;;12.77;11.05;;;18.20;99.90;;;;;;5037516;28;20094;-73
2022/04/15 12:33:07;;;;;;;;;;;18.40;99.90;;;;;;5031563;28;20027;-73